Time;durP1;ratioP1;P1;durP2;ratioP2;P2;SDS_P1;SDS_P2;PMS_P1;PMS_P2;Temp;Humidity;BMP_temperature;BMP_pressure;BME280_temperature;BME280_humidity;BME280_pressure;Samples;Min_cycle;Max_cycle;Signal;HPM_P1;HPM_P2
2022/06/17 00:01:04;;;;;;;17.20;6.38;;;20.00;99.90;;;;;;5113532;28;20015;-73
2022/06/17 00:03:32;;;;;;;9.90;5.50;;;20.00;99.90;;;;;;5113509;28;20110;-71
2022/06/17 00:06:01;;;;;;;9.38;5.65;;;19.90;99.90;;;;;;5113313;28;20024;-70
2022/06/17 00:08:40;;;;;;;15.00;7.15;;;19.80;99.90;;;;;;5113232;28;20043;-72
2022/06/17 00:11:12;;;;;;;12.18;6.13;;;19.80;99.90;;;;;;5113015;28;20023;-73
2022/06/17 00:13:38;;;;;;;;;;;19.70;99.90;;;;;;5113609;28;20358;-74
2022/06/17 00:16:08;;;;;;;11.57;6.20;;;19.70;99.90;;;;;;5114718;27;20013;-71
2022/06/17 00:18:34;;;;;;;11.30;6.43;;;19.70;99.90;;;;;;5113113;28;20023;-69
2022/06/17 00:21:00;;;;;;;10.38;6.15;;;19.70;99.90;;;;;;5112997;28;20046;-72
2022/06/17 00:23:28;;;;;;;12.65;6.25;;;19.70;99.90;;;;;;5113994;27;20052;-72
2022/06/17 00:25:54;;;;;;;12.73;5.88;;;19.70;99.90;;;;;;5112996;28;20028;-73
2022/06/17 00:28:23;;;;;;;11.13;6.63;;;19.60;99.90;;;;;;5112788;28;20507;-72
2022/06/17 00:30:50;;;;;;;16.02;6.45;;;19.70;99.90;;;;;;5112417;28;20416;-71
2022/06/17 00:33:17;;;;;;;11.65;6.43;;;19.70;99.90;;;;;;5112307;28;20032;-73
2022/06/17 00:35:52;;;;;;;8.98;5.95;;;19.70;99.90;;;;;;5115148;27;20439;-73
2022/06/17 00:38:38;;;;;;;16.15;6.53;;;19.80;99.90;;;;;;5094237;28;20042;-71
2022/06/17 00:41:32;;;;;;;12.75;6.32;;;19.50;99.90;;;;;;5112365;28;20048;-73
2022/06/17 00:44:33;;;;;;;11.63;5.60;;;19.60;99.90;;;;;;5112500;28;20051;-72
2022/06/17 00:47:25;;;;;;;11.60;6.85;;;19.60;99.90;;;;;;5055957;28;20471;-70
2022/06/17 00:50:13;;;;;;;10.30;5.90;;;19.50;99.90;;;;;;5112435;28;20036;-73
2022/06/17 00:52:59;;;;;;;15.18;5.90;;;19.30;99.90;;;;;;5093633;28;20131;-73
2022/06/17 00:55:32;;;;;;;10.07;5.53;;;19.20;99.90;;;;;;5097917;28;20036;-74
2022/06/17 00:58:01;;;;;;;10.90;6.03;;;19.20;99.90;;;;;;5093980;28;20442;-73
2022/06/17 01:00:28;;;;;;;10.75;6.07;;;19.20;99.90;;;;;;5111988;28;20495;-72
2022/06/17 01:03:06;;;;;;;9.88;5.43;;;19.20;99.90;;;;;;5093902;28;20034;-74
2022/06/17 01:05:44;;;;;;;9.40;5.50;;;19.20;99.90;;;;;;5093664;28;20077;-74
2022/06/17 01:09:57;;;;;;;8.45;5.68;;;19.20;99.90;;;;;;5092563;28;20031;-73
2022/06/17 01:11:07;;;;;;;11.15;5.07;;;19.20;99.90;;;;;;5093395;28;20132;-72
2022/06/17 01:13:35;;;;;;;9.13;5.22;;;19.20;99.90;;;;;;5093788;28;20510;-74
2022/06/17 01:16:02;;;;;;;8.57;5.15;;;19.30;99.90;;;;;;5111987;28;20019;-73
2022/06/17 01:18:32;;;;;;;7.78;4.60;;;19.30;99.90;;;;;;5097150;27;20047;-74
2022/06/17 01:21:14;;;;;;;10.90;4.82;;;19.40;99.90;;;;;;5093514;28;20019;-73
2022/06/17 01:23:41;;;;;;;8.82;4.90;;;19.40;99.90;;;;;;5093960;28;20035;-73
2022/06/17 01:26:07;;;;;;;7.90;4.75;;;19.40;99.90;;;;;;5093340;28;20110;-72
2022/06/17 01:28:33;;;;;;;8.65;4.78;;;19.50;99.90;;;;;;5093802;28;20035;-72
2022/06/17 01:31:04;;;;;;;9.05;5.13;;;19.50;99.90;;;;;;5093262;28;20028;-71
2022/06/17 01:33:38;;;;;;;10.95;4.80;;;19.50;99.90;;;;;;5111070;28;20092;-73
2022/06/17 01:36:12;;;;;;;12.15;5.63;;;19.60;99.90;;;;;;5113454;27;20068;-73
2022/06/17 01:38:42;;;;;;;10.85;5.35;;;19.60;99.90;;;;;;5111387;28;20083;-74
2022/06/17 01:41:09;;;;;;;11.98;7.00;;;19.70;99.90;;;;;;5111018;28;20630;-73
2022/06/17 01:43:42;;;;;;;15.95;7.70;;;19.70;99.90;;;;;;5111808;28;20015;-72
2022/06/17 01:46:16;;;;;;;10.60;5.95;;;19.70;99.90;;;;;;5106780;28;20072;-72
2022/06/17 01:48:50;;;;;;;15.73;6.05;;;19.80;99.90;;;;;;5111568;28;20028;-72
2022/06/17 01:51:20;;;;;;;15.57;6.70;;;19.80;99.90;;;;;;5113345;27;20043;-72
2022/06/17 01:53:51;;;;;;;6.50;4.90;;;19.80;99.90;;;;;;5116552;27;20176;-72
2022/06/17 01:56:21;;;;;;;9.98;5.10;;;19.80;99.90;;;;;;5093081;28;20038;-72
2022/06/17 01:59:10;;;;;;;10.38;5.25;;;19.80;99.90;;;;;;5092813;28;20035;-72
2022/06/17 02:01:40;;;;;;;9.95;5.05;;;19.70;99.90;;;;;;5093152;28;20465;-73
2022/06/17 02:04:17;;;;;;;10.88;5.95;;;19.60;99.90;;;;;;5092996;28;20031;-73
2022/06/17 02:06:50;;;;;;;9.93;5.25;;;19.50;99.90;;;;;;5092985;28;20024;-74
2022/06/17 02:09:17;;;;;;;9.07;4.97;;;19.40;99.90;;;;;;5092884;28;20486;-73
2022/06/17 02:11:46;;;;;;;8.77;4.80;;;19.40;99.90;;;;;;5096828;28;20020;-73
2022/06/17 02:14:15;;;;;;;8.95;5.15;;;19.30;99.90;;;;;;5092519;28;20040;-72
2022/06/17 02:16:48;;;;;;;11.55;5.72;;;19.30;99.90;;;;;;5110381;28;20024;-71
2022/06/17 02:19:26;;;;;;;10.45;5.30;;;19.20;99.90;;;;;;5110887;28;20435;-73
2022/06/17 02:22:04;;;;;;;10.68;5.82;;;19.20;99.90;;;;;;5092083;28;20044;-72
2022/06/17 02:24:30;;;;;;;10.73;5.07;;;19.30;99.90;;;;;;5110811;28;20019;-72
2022/06/17 02:26:58;;;;;;;14.43;5.45;;;19.20;99.90;;;;;;5092620;28;20027;-73
2022/06/17 02:29:25;;;;;;;12.85;5.90;;;19.10;99.90;;;;;;5092665;28;20023;-72
2022/06/17 02:31:52;;;;;;;10.52;6.13;;;19.10;99.90;;;;;;5110923;28;20114;-71
2022/06/17 02:34:19;;;;;;;12.25;5.90;;;19.10;99.90;;;;;;5111953;28;20074;-71
2022/06/17 02:36:58;;;;;;;12.05;6.25;;;19.10;99.90;;;;;;5111216;28;20015;-74
2022/06/17 02:39:27;;;;;;;10.50;6.00;;;19.10;99.90;;;;;;5092733;28;20355;-73
2022/06/17 02:41:54;;;;;;;9.73;6.55;;;19.10;99.90;;;;;;5092552;28;20080;-72
2022/06/17 02:44:29;;;;;;;16.95;6.53;;;19.10;99.90;;;;;;5110620;28;20016;-72
2022/06/17 02:46:57;;;;;;;11.98;6.00;;;19.10;99.90;;;;;;5092321;28;20626;-72
2022/06/17 02:49:30;;;;;;;8.07;5.07;;;19.20;99.90;;;;;;5092192;28;20055;-73
2022/06/17 02:51:58;;;;;;;16.08;6.40;;;19.30;99.90;;;;;;5092449;28;20051;-72
2022/06/17 02:54:39;;;;;;;12.48;5.90;;;19.30;99.90;;;;;;5092431;28;20110;-74
2022/06/17 02:57:16;;;;;;;10.77;6.43;;;19.30;99.90;;;;;;5092559;28;20103;-72
2022/06/17 02:59:50;;;;;;;11.95;5.80;;;19.30;99.90;;;;;;5110764;28;20024;-73
2022/06/17 03:02:46;;;;;;;12.38;7.10;;;19.40;99.90;;;;;;5096456;28;20087;-73
2022/06/17 03:05:33;;;;;;;10.68;6.75;;;19.40;99.90;;;;;;5104079;28;20032;-70
2022/06/17 03:08:00;;;;;;;11.93;6.93;;;19.40;99.90;;;;;;5108303;28;20111;-74
2022/06/17 03:10:40;;;;;;;11.15;6.63;;;19.40;99.90;;;;;;5091667;28;20055;-74
2022/06/17 03:13:25;;;;;;;12.95;7.13;;;19.40;99.90;;;;;;5107727;28;20039;-73
2022/06/17 03:15:54;;;;;;;14.60;6.80;;;19.40;99.90;;;;;;5092077;28;20114;-72
2022/06/17 03:18:22;;;;;;;10.52;6.82;;;19.30;99.90;;;;;;5110153;28;20422;-72
2022/06/17 03:20:49;;;;;;;12.35;6.90;;;19.30;99.90;;;;;;5110459;28;20020;-69
2022/06/17 03:23:22;;;;;;;10.13;6.50;;;19.30;99.90;;;;;;5096173;28;20024;-73
2022/06/17 03:25:54;;;;;;;17.10;6.72;;;19.40;99.90;;;;;;5110244;28;20432;-71
2022/06/17 03:28:27;;;;;;;9.70;6.18;;;19.40;99.90;;;;;;5112065;28;20120;-74
2022/06/17 03:31:03;;;;;;;11.80;6.75;;;19.50;99.90;;;;;;5095444;28;20051;-72
2022/06/17 03:33:41;;;;;;;14.80;6.68;;;19.50;99.90;;;;;;5095469;28;20043;-74
2022/06/17 03:36:27;;;;;;;14.30;7.28;;;19.60;99.90;;;;;;5096437;28;20035;-73
2022/06/17 03:38:57;;;;;;;11.73;7.10;;;19.60;99.90;;;;;;5095460;28;20027;-72
2022/06/17 03:41:45;;;;;;;11.82;7.10;;;19.70;99.90;;;;;;5113823;28;20384;-73
2022/06/17 03:44:22;;;;;;;13.50;7.38;;;19.80;99.90;;;;;;5095338;28;20146;-72
2022/06/17 03:46:57;;;;;;;10.63;6.70;;;19.80;99.90;;;;;;5095463;28;20042;-73
2022/06/17 03:49:29;;;;;;;12.73;7.57;;;19.90;99.90;;;;;;5094510;28;20570;-73
2022/06/17 03:52:02;;;;;;;11.57;7.07;;;19.90;99.90;;;;;;5094755;28;20488;-74
2022/06/17 03:54:28;;;;;;;12.00;7.05;;;20.00;99.90;;;;;;5113495;28;20530;-73
2022/06/17 03:56:56;;;;;;;13.25;7.07;;;20.40;99.90;;;;;;5095085;28;20564;-72
2022/06/17 03:59:26;;;;;;;11.10;7.53;;;21.10;99.90;;;;;;5094641;28;20024;-73
2022/06/17 04:01:59;;;;;;;15.10;6.53;;;21.70;99.90;;;;;;5095741;27;20023;-71
2022/06/17 04:04:33;;;;;;;9.52;6.72;;;22.60;99.90;;;;;;5113592;27;20054;-72
2022/06/17 04:07:01;;;;;;;10.82;6.57;;;22.90;99.90;;;;;;5108954;27;20061;-73
2022/06/17 04:09:37;;;;;;;12.65;6.45;;;23.70;99.90;;;;;;5114117;27;20027;-71
2022/06/17 04:12:19;;;;;;;11.65;6.50;;;24.10;99.90;;;;;;5112889;28;20511;-72
2022/06/17 04:15:06;;;;;;;10.45;5.45;;;24.10;99.90;;;;;;5094724;28;20036;-71
2022/06/17 04:17:39;;;;;;;8.27;5.70;;;25.20;99.90;;;;;;5101047;27;20023;-71
2022/06/17 04:20:43;;;;;;;11.13;5.93;;;25.00;99.90;;;;;;5095791;27;20867;-73
2022/06/17 04:23:21;;;;;;;11.45;5.40;;;24.30;99.90;;;;;;5108930;27;20053;-64
2022/06/17 04:26:26;;;;;;;10.18;6.53;;;23.50;99.90;;;;;;5094230;27;20111;-72
2022/06/17 04:28:58;;;;;;;8.27;5.72;;;23.10;99.90;;;;;;5107900;27;20023;-69
2022/06/17 04:31:30;;;;;;;14.00;6.20;;;22.80;99.90;;;;;;5115695;27;20034;-71
2022/06/17 04:34:04;;;;;;;8.38;6.00;;;22.60;99.90;;;;;;5111983;28;20052;-69
2022/06/17 04:36:51;;;;;;;10.55;6.32;;;22.50;99.90;;;;;;5094400;28;20031;-71
2022/06/17 04:39:38;;;;;;;10.93;6.72;;;22.40;99.90;;;;;;5093288;28;20507;-70
2022/06/17 04:42:28;;;;;;;10.70;7.25;;;22.40;99.90;;;;;;5093844;28;20455;-70
2022/06/17 04:44:54;;;;;;;9.90;6.35;;;22.90;99.90;;;;;;5093359;28;20035;-72
2022/06/17 04:47:21;;;;;;;10.93;6.40;;;24.20;99.90;;;;;;5101926;27;20030;-72
2022/06/17 04:50:02;;;;;;;10.10;6.35;;;24.60;99.90;;;;;;5119613;27;20537;-71
2022/06/17 04:52:41;;;;;;;9.45;6.45;;;24.80;99.90;;;;;;5083397;28;20078;-72
2022/06/17 04:55:28;;;;;;;9.73;5.60;;;25.50;99.90;;;;;;5093900;28;20053;-71
2022/06/17 04:58:16;;;;;;;14.43;6.18;;;24.70;99.90;;;;;;5104676;28;20062;-73
2022/06/17 05:00:51;;;;;;;14.23;6.18;;;23.70;99.90;;;;;;5094526;28;20034;-73
2022/06/17 05:03:29;;;;;;;16.60;6.10;;;23.90;99.90;;;;;;5092879;28;20435;-73
2022/06/17 05:06:27;;;;;;;9.25;6.32;;;23.60;99.90;;;;;;5029197;28;20454;-73
2022/06/17 05:09:06;;;;;;;10.85;6.55;;;23.60;99.90;;;;;;5030244;28;20049;-74
2022/06/17 05:11:39;;;;;;;10.80;5.72;;;23.70;99.90;;;;;;5004899;28;20539;-73
2022/06/17 05:14:27;;;;;;;10.35;5.18;;;23.80;99.90;;;;;;5011338;28;20041;-73
2022/06/17 05:16:56;;;;;;;9.15;6.25;;;24.20;99.90;;;;;;5003950;28;20041;-73
2022/06/17 05:19:22;;;;;;;9.57;5.13;;;24.30;99.90;;;;;;5026747;28;20555;-73
2022/06/17 05:21:50;;;;;;;11.30;5.78;;;24.50;99.90;;;;;;5012463;28;20058;-72
2022/06/17 05:24:21;;;;;;;9.17;5.43;;;24.60;99.90;;;;;;5039168;28;20021;-72
2022/06/17 05:26:47;;;;;;;9.52;5.97;;;24.60;99.90;;;;;;5013682;28;20029;-71
2022/06/17 05:29:13;;;;;;;9.48;5.88;;;24.50;99.90;;;;;;5030525;28;20601;-73
2022/06/17 05:31:52;;;;;;;11.75;5.82;;;24.80;99.90;;;;;;5030087;28;20060;-73
2022/06/17 05:34:21;;;;;;;12.23;6.35;;;24.50;99.90;;;;;;5030336;28;20032;-72
2022/06/17 05:36:47;;;;;;;12.75;6.68;;;24.20;99.90;;;;;;5012714;28;20402;-73
2022/06/17 05:39:14;;;;;;;10.18;6.18;;;24.30;99.90;;;;;;5006085;28;20124;-72
2022/06/17 05:41:41;;;;;;;11.35;6.35;;;24.10;99.90;;;;;;5044555;28;20153;-72
2022/06/17 05:44:06;;;;;;;9.70;5.82;;;24.00;99.90;;;;;;5094024;28;20045;-73
2022/06/17 05:46:47;;;;;;;12.45;5.75;;;24.00;99.90;;;;;;5094693;28;20110;-73
2022/06/17 05:49:51;;;;;;;9.55;6.28;;;23.90;99.90;;;;;;5029156;28;20392;-73
2022/06/17 05:52:56;;;;;;;12.32;5.20;;;23.70;99.90;;;;;;4990668;28;20150;-73
2022/06/17 05:55:40;;;;;;;14.68;6.13;;;23.80;99.90;;;;;;4990806;28;20396;-73
2022/06/17 05:58:07;;;;;;;13.60;6.47;;;24.00;99.90;;;;;;4990372;28;20113;-73
2022/06/17 06:00:35;;;;;;;10.38;5.97;;;23.80;99.90;;;;;;4972838;28;20031;-72
2022/06/17 06:03:03;;;;;;;9.15;6.15;;;23.70;99.90;;;;;;4990456;28;20058;-73
2022/06/17 06:05:35;;;;;;;7.38;5.50;;;23.90;99.90;;;;;;4960285;28;20031;-72
2022/06/17 06:08:03;;;;;;;11.13;6.00;;;24.00;99.90;;;;;;4990209;28;20038;-73
2022/06/17 06:10:29;;;;;;;12.43;5.43;;;23.90;99.90;;;;;;4973697;28;20026;-72
2022/06/17 06:13:01;;;;;;;11.98;5.95;;;24.10;99.90;;;;;;4973816;28;20045;-73
2022/06/17 06:15:40;;;;;;;13.18;6.20;;;24.00;99.90;;;;;;4990447;28;20030;-73
2022/06/17 06:18:36;;;;;;;11.30;4.82;;;24.20;99.90;;;;;;4990276;28;20413;-72
2022/06/17 06:21:09;;;;;;;12.70;5.72;;;24.00;99.90;;;;;;5004305;28;20059;-73
2022/06/17 06:23:39;;;;;;;9.02;5.15;;;23.90;99.90;;;;;;5032305;28;20040;-72
2022/06/17 06:26:08;;;;;;;9.68;5.28;;;24.00;99.90;;;;;;5057124;28;20413;-72
2022/06/17 06:28:35;;;;;;;8.30;5.35;;;24.00;99.90;;;;;;5091228;28;20027;-73
2022/06/17 06:31:33;;;;;;;10.05;5.45;;;23.90;99.90;;;;;;5048962;28;20035;-72
2022/06/17 06:34:05;;;;;;;10.15;6.00;;;24.00;99.90;;;;;;5030802;28;20127;-72
2022/06/17 06:36:38;;;;;;;10.07;4.85;;;24.20;99.90;;;;;;5031925;28;20045;-73
2022/06/17 06:39:04;;;;;;;10.77;5.10;;;24.40;99.90;;;;;;5049327;28;20029;-73
2022/06/17 06:41:30;;;;;;;8.93;5.38;;;24.50;99.90;;;;;;5049051;28;20095;-73
2022/06/17 06:43:57;;;;;;;7.65;5.00;;;24.60;99.90;;;;;;5032013;28;20024;-72
2022/06/17 06:46:42;;;;;;;11.05;5.78;;;24.40;99.90;;;;;;5049532;28;20037;-73
2022/06/17 06:49:20;;;;;;;12.88;5.72;;;24.40;99.90;;;;;;5046918;28;20045;-73
2022/06/17 06:51:46;;;;;;;12.35;5.18;;;24.60;99.90;;;;;;5012608;28;20044;-73
2022/06/17 06:54:12;;;;;;;9.30;4.90;;;24.50;99.90;;;;;;5047535;28;20044;-73
2022/06/17 06:56:38;;;;;;;7.60;4.72;;;24.70;99.90;;;;;;5032004;28;20037;-72
2022/06/17 06:59:04;;;;;;;11.18;5.57;;;24.70;99.90;;;;;;5032459;28;20514;-72
2022/06/17 07:01:30;;;;;;;12.10;5.70;;;24.60;99.90;;;;;;5049880;28;20126;-74
2022/06/17 07:03:58;;;;;;;9.43;4.85;;;24.70;99.90;;;;;;5053132;28;20122;-73
2022/06/17 07:06:24;;;;;;;12.32;5.20;;;24.60;99.90;;;;;;5035851;28;20033;-72
2022/06/17 07:08:50;;;;;;;8.85;4.80;;;24.60;99.90;;;;;;5068694;28;20034;-73
2022/06/17 07:11:16;;;;;;;12.48;5.38;;;24.70;99.90;;;;;;5114887;28;20085;-73
2022/06/17 07:13:43;;;;;;;7.90;4.43;;;24.80;99.90;;;;;;5109499;28;20457;-71
2022/06/17 07:16:11;;;;;;;14.02;4.75;;;24.90;99.90;;;;;;5105812;28;20023;-72
2022/06/17 07:18:38;;;;;;;9.93;4.45;;;25.00;99.30;;;;;;5115539;28;20050;-73
2022/06/17 07:21:07;;;;;;;9.45;4.85;;;25.10;99.00;;;;;;5115083;28;20027;-73
2022/06/17 07:23:35;;;;;;;7.53;4.53;;;25.30;99.90;;;;;;5115238;28;20111;-73
2022/06/17 07:26:22;;;;;;;12.18;5.20;;;25.20;99.70;;;;;;5114666;28;20027;-72
2022/06/17 07:28:51;;;;;;;6.78;4.78;;;25.50;99.90;;;;;;5115303;28;20055;-72
2022/06/17 07:31:17;;;;;;;9.88;4.80;;;25.40;99.10;;;;;;5115281;28;20035;-73
2022/06/17 07:33:43;;;;;;;7.28;4.85;;;25.30;99.00;;;;;;5114975;28;20024;-73
2022/06/17 07:41:50;;;;;;;7.07;3.80;;;26.10;97.80;;;;;;5031940;28;20503;-73
2022/06/17 07:44:17;;;;;;;7.72;4.25;;;26.10;95.20;;;;;;5031811;28;20029;-73
2022/06/17 07:46:44;;;;;;;9.93;4.43;;;26.20;96.40;;;;;;5032003;28;20041;-73
2022/06/17 07:49:11;;;;;;;9.30;4.35;;;26.20;96.20;;;;;;5032783;28;20029;-73
2022/06/17 07:51:36;;;;;;;8.30;3.83;;;26.40;96.80;;;;;;5052016;28;20041;-73
2022/06/17 07:54:02;;;;;;;5.78;3.97;;;26.20;95.30;;;;;;5052025;28;20041;-74
2022/06/17 07:56:28;;;;;;;9.43;3.75;;;25.80;95.30;;;;;;5051825;28;20094;-73
2022/06/17 07:58:54;;;;;;;8.20;3.95;;;25.70;96.40;;;;;;5051745;28;20037;-75
2022/06/17 08:01:21;;;;;;;13.40;4.00;;;25.90;97.60;;;;;;5051622;28;20041;-73
2022/06/17 08:03:46;;;;;;;7.97;4.63;;;25.90;95.10;;;;;;5051576;28;20033;-73
2022/06/17 08:06:14;;;;;;;12.85;4.95;;;25.90;95.90;;;;;;5051680;28;20372;-73
2022/06/17 08:08:40;;;;;;;11.75;4.40;;;25.90;95.40;;;;;;5051438;28;20025;-73
2022/06/17 08:11:07;;;;;;;13.10;4.35;;;26.20;95.90;;;;;;5051019;28;20029;-73
2022/06/17 08:13:33;;;;;;;6.95;3.72;;;26.50;94.20;;;;;;5050209;28;20068;-74
2022/06/17 08:16:02;;;;;;;8.80;3.88;;;26.60;93.50;;;;;;5070749;27;20104;-73
2022/06/17 08:18:28;;;;;;;6.38;3.88;;;26.70;95.90;;;;;;5134587;27;20383;-71
2022/06/17 08:20:55;;;;;;;5.60;4.05;;;26.90;92.20;;;;;;5135345;27;20424;-73
2022/06/17 08:23:21;;;;;;;7.57;4.03;;;27.10;91.70;;;;;;5120410;27;20027;-73
2022/06/17 08:25:47;;;;;;;8.95;3.90;;;27.30;91.40;;;;;;5134602;27;20026;-74
2022/06/17 08:28:15;;;;;;;6.70;3.33;;;27.30;91.20;;;;;;5134270;27;20030;-73
2022/06/17 08:30:48;;;;;;;10.30;3.17;;;27.50;90.50;;;;;;5134531;27;20019;-74
2022/06/17 08:33:14;;;;;;;8.80;4.10;;;27.10;89.80;;;;;;5134520;27;20495;-74
2022/06/17 08:35:44;;;;;;;10.13;4.30;;;26.90;88.70;;;;;;5134169;27;20019;-73
2022/06/17 08:38:31;;;;;;;6.65;3.53;;;27.20;89.50;;;;;;5134377;27;20030;-74
2022/06/17 08:41:00;;;;;;;7.82;4.00;;;27.10;90.00;;;;;;5134374;27;20101;-73
2022/06/17 08:43:32;;;;;;;6.60;3.95;;;27.00;91.40;;;;;;5135314;27;20080;-73
2022/06/17 08:46:36;;;;;;;9.35;4.18;;;26.60;90.80;;;;;;5120984;27;20045;-74
2022/06/17 08:49:11;;;;;;;8.27;3.17;;;26.50;91.40;;;;;;5134238;27;20024;-73
2022/06/17 08:51:55;;;;;;;9.32;3.25;;;26.50;91.70;;;;;;5122322;27;20032;-73
2022/06/17 08:54:26;;;;;;;7.28;3.70;;;26.40;91.20;;;;;;5133764;27;20035;-73
2022/06/17 08:57:20;;;;;;;5.45;3.50;;;26.30;91.20;;;;;;5134349;27;20105;-73
2022/06/17 09:00:07;;;;;;;8.48;3.85;;;26.40;92.90;;;;;;5120785;27;20034;-74
2022/06/17 09:03:15;;;;;;;5.70;3.05;;;26.40;92.30;;;;;;5132898;27;20019;-73
2022/06/17 09:05:45;;;;;;;4.18;3.67;;;26.50;91.30;;;;;;5030491;28;20041;-71
2022/06/17 09:08:26;;;;;;;7.22;3.45;;;26.60;92.00;;;;;;5030558;28;20032;-74
2022/06/17 09:11:00;;;;;;;7.40;3.80;;;26.70;91.30;;;;;;5028575;28;20048;-72
2022/06/17 09:14:03;;;;;;;5.05;3.08;;;27.00;91.60;;;;;;5029432;28;20306;-70
2022/06/17 09:17:07;;;;;;;11.68;3.40;;;27.00;90.90;;;;;;5030038;28;20083;-69
2022/06/17 09:19:37;;;;;;;5.43;3.47;;;27.20;89.90;;;;;;4932682;29;20032;-73
2022/06/17 09:22:32;;;;;;;8.55;3.47;;;27.30;90.10;;;;;;4932905;29;20460;-69
2022/06/17 09:25:06;;;;;;;28.15;3.92;;;27.30;87.30;;;;;;4931458;29;20043;-66
2022/06/17 09:27:45;;;;;;;7.93;3.90;;;27.30;88.40;;;;;;4932945;29;20031;-66
2022/06/17 09:30:20;;;;;;;7.65;3.75;;;27.50;90.20;;;;;;4933058;29;20043;-63
2022/06/17 09:32:48;;;;;;;6.47;3.35;;;27.40;86.10;;;;;;4933157;29;20051;-72
2022/06/17 09:35:35;;;;;;;6.55;2.92;;;27.80;87.20;;;;;;4932833;29;20067;-72
2022/06/17 09:38:14;;;;;;;6.90;3.05;;;27.40;88.40;;;;;;4933035;29;20478;-73
2022/06/17 09:40:45;;;;;;;6.88;2.95;;;27.80;87.40;;;;;;4932876;29;20039;-73
2022/06/17 09:43:22;;;;;;;6.07;3.13;;;27.80;82.70;;;;;;5013535;28;20483;-73
2022/06/17 09:45:58;;;;;;;5.65;3.70;;;27.60;84.00;;;;;;5030053;28;20029;-73
2022/06/17 09:48:40;;;;;;;6.18;2.95;;;28.10;85.60;;;;;;5030133;28;20034;-73
2022/06/17 09:51:21;;;;;;;7.05;2.80;;;28.20;85.70;;;;;;5029623;28;20049;-72
2022/06/17 09:54:21;;;;;;;6.38;3.42;;;28.10;84.50;;;;;;5029507;28;20053;-73
2022/06/17 09:56:57;;;;;;;4.45;2.78;;;28.20;83.50;;;;;;5108594;27;20045;-73
2022/06/17 09:59:26;;;;;;;4.88;3.20;;;27.80;85.10;;;;;;5132725;27;20064;-73
2022/06/17 10:01:55;;;;;;;6.05;2.67;;;27.60;85.20;;;;;;5133171;27;20031;-74
2022/06/17 10:04:23;;;;;;;3.33;2.70;;;27.70;86.30;;;;;;5132355;27;20031;-72
2022/06/17 10:07:02;;;;;;;5.22;3.17;;;27.50;84.00;;;;;;5132855;27;20028;-73
2022/06/17 10:09:55;;;;;;;6.07;2.53;;;27.50;84.40;;;;;;5132899;27;20518;-70
2022/06/17 10:12:36;;;;;;;12.10;2.67;;;27.30;83.70;;;;;;5132621;27;20035;-69
2022/06/17 10:15:35;;;;;;;5.80;2.97;;;27.10;84.70;;;;;;5133166;28;20106;-72
2022/06/17 10:21:30;;;;;;;4.38;2.53;;;27.20;83.60;;;;;;5127837;28;20023;-70
2022/06/17 10:23:56;;;;;;;2.75;1.83;;;27.40;81.90;;;;;;5114657;28;20023;-71
2022/06/17 10:26:48;;;;;;;5.00;2.50;;;27.30;80.00;;;;;;5131073;28;20027;-73
2022/06/17 10:29:23;;;;;;;6.78;2.13;;;27.50;79.60;;;;;;5120668;28;20027;-72
2022/06/17 10:31:51;;;;;;;4.15;2.40;;;27.60;78.00;;;;;;5132241;27;20027;-73
2022/06/17 10:34:26;;;;;;;5.20;2.20;;;27.70;77.30;;;;;;5132102;28;20034;-73
2022/06/17 10:36:54;;;;;;;3.20;2.10;;;27.80;76.60;;;;;;5132228;27;20147;-73
2022/06/17 10:39:25;;;;;;;3.00;2.05;;;27.80;74.10;;;;;;5116014;28;20106;-71
2022/06/17 10:41:51;;;;;;;7.80;2.00;;;27.80;75.80;;;;;;5131172;27;20024;-72
2022/06/17 10:44:22;;;;;;;3.22;2.58;;;27.80;75.10;;;;;;5118031;27;20040;-73
2022/06/17 10:47:15;;;;;;;4.03;1.92;;;28.10;74.50;;;;;;5135609;27;20054;-72
2022/06/17 10:49:48;;;;;;;3.90;2.33;;;28.40;74.30;;;;;;5134739;27;20039;-73
2022/06/17 10:52:39;;;;;;;6.63;2.40;;;28.50;76.50;;;;;;5135904;27;20067;-73
2022/06/17 10:55:14;;;;;;;5.38;2.40;;;28.30;74.60;;;;;;5136431;27;20031;-72
2022/06/17 10:58:00;;;;;;;4.03;2.00;;;28.20;75.60;;;;;;5134712;27;20031;-71
2022/06/17 11:00:27;;;;;;;5.57;2.20;;;28.00;76.90;;;;;;5135788;27;20035;-71
2022/06/17 11:02:53;;;;;;;7.72;2.40;;;27.80;75.90;;;;;;5100891;27;20708;-69
2022/06/17 11:05:34;;;;;;;4.13;2.50;;;27.90;77.70;;;;;;5094211;28;20028;-73
2022/06/17 11:08:00;;;;;;;4.60;2.17;;;28.00;75.20;;;;;;5058458;28;20046;-72
2022/06/17 11:10:29;;;;;;;4.13;2.72;;;27.70;76.20;;;;;;5060800;28;20016;-72
2022/06/17 11:13:05;;;;;;;4.70;2.85;;;27.80;77.50;;;;;;5074394;28;20040;-73
2022/06/17 11:15:43;;;;;;;5.85;2.30;;;27.80;77.60;;;;;;5060510;28;20025;-72
2022/06/17 11:18:33;;;;;;;3.63;2.28;;;28.00;80.60;;;;;;5063081;28;20031;-72
2022/06/17 11:21:08;;;;;;;5.10;2.00;;;27.90;77.60;;;;;;5074965;28;20577;-72
2022/06/17 11:23:41;;;;;;;4.88;2.05;;;27.80;76.30;;;;;;5074517;28;20924;-73
2022/06/17 11:26:20;;;;;;;4.38;1.90;;;27.70;75.70;;;;;;5074625;28;20028;-72
2022/06/17 11:28:47;;;;;;;3.25;2.13;;;27.40;75.00;;;;;;5074703;28;20017;-69
2022/06/17 11:31:19;;;;;;;8.85;2.20;;;27.80;79.00;;;;;;5057272;28;20450;-73
2022/06/17 11:33:54;;;;;;;;;;;28.00;77.70;;;;;;5074645;28;20029;-72
2022/06/17 11:36:32;;;;;;;3.85;2.08;;;28.20;76.30;;;;;;5074760;28;19909;-73
2022/06/17 11:39:33;;;;;;;3.50;1.88;;;28.20;76.60;;;;;;5074250;28;20030;-71
2022/06/17 11:42:19;;;;;;;4.82;1.67;;;28.10;74.70;;;;;;5074213;28;20039;-72
2022/06/17 11:45:03;;;;;;;8.05;2.38;;;28.10;72.90;;;;;;5074345;28;20029;-71
2022/06/17 11:47:32;;;;;;;3.22;1.90;;;28.10;75.10;;;;;;5073260;28;20028;-72
2022/06/17 11:50:10;;;;;;;3.25;1.60;;;28.10;72.30;;;;;;5055182;28;20052;-72
2022/06/17 11:52:37;;;;;;;3.15;1.90;;;28.30;70.30;;;;;;5073963;28;20032;-73
2022/06/17 11:55:04;;;;;;;3.78;1.77;;;28.00;70.30;;;;;;5073589;28;20385;-73
2022/06/17 11:57:34;;;;;;;4.45;2.25;;;27.90;69.50;;;;;;5073109;28;20028;-73
2022/06/17 12:00:04;;;;;;;2.58;1.58;;;28.00;72.20;;;;;;5073120;28;20105;-73
2022/06/17 12:02:53;;;;;;;3.95;1.98;;;28.20;72.00;;;;;;5073282;28;20104;-72
2022/06/17 12:05:26;;;;;;;3.17;2.05;;;28.30;72.30;;;;;;5073208;28;20375;-73
2022/06/17 12:08:15;;;;;;;5.70;2.42;;;28.30;72.80;;;;;;5073444;28;20021;-72
2022/06/17 12:10:47;;;;;;;4.13;2.00;;;28.60;72.40;;;;;;5073518;28;20409;-74
2022/06/17 12:13:18;;;;;;;;;;;28.60;72.20;;;;;;5073615;28;20036;-73
2022/06/17 12:15:55;;;;;;;4.88;1.88;;;28.80;81.50;;;;;;5073668;28;19908;-72
2022/06/17 12:18:37;;;;;;;5.10;1.92;;;28.80;71.20;;;;;;5073715;28;20485;-74
2022/06/17 12:21:05;;;;;;;;;;;28.80;69.50;;;;;;5073795;28;20036;-73
2022/06/17 12:23:47;;;;;;;2.95;2.03;;;28.50;70.70;;;;;;5073142;28;19909;-73
2022/06/17 12:26:18;;;;;;;;;;;28.40;73.10;;;;;;5073446;28;20029;-74
2022/06/17 12:28:52;;;;;;;7.90;2.30;;;28.30;72.60;;;;;;5073420;28;19908;-74
2022/06/17 12:31:39;;;;;;;4.05;1.90;;;28.50;68.80;;;;;;5073382;28;20060;-74
2022/06/17 12:34:09;;;;;;;4.28;1.88;;;28.60;69.50;;;;;;5073379;28;20371;-73
2022/06/17 12:36:48;;;;;;;7.93;1.80;;;28.60;70.30;;;;;;5073034;28;20031;-73
2022/06/17 12:39:39;;;;;;;1.73;1.42;;;28.70;69.80;;;;;;5073228;28;20036;-73
2022/06/17 12:42:13;;;;;;;2.80;1.90;;;28.60;66.50;;;;;;5072112;28;20039;-73
2022/06/17 12:44:45;;;;;;;3.85;1.95;;;28.70;68.90;;;;;;5072872;28;20265;-73
2022/06/17 12:47:16;;;;;;;5.97;1.73;;;28.70;69.00;;;;;;5072934;28;20711;-74
2022/06/17 12:53:27;;;;;;;5.18;1.50;;;28.80;69.20;;;;;;5072456;28;20044;-74
2022/06/17 12:56:07;;;;;;;6.53;1.88;;;29.10;70.70;;;;;;5071563;28;20112;-74
2022/06/17 12:58:48;;;;;;;35.10;2.55;;;29.00;68.70;;;;;;5072508;28;20025;-72
2022/06/17 13:01:25;;;;;;;4.13;1.88;;;29.00;69.20;;;;;;5072965;28;20420;-73
2022/06/17 13:04:04;;;;;;;3.10;2.05;;;29.00;68.40;;;;;;5054471;28;20115;-74
2022/06/17 13:07:05;;;;;;;2.78;1.52;;;28.70;69.40;;;;;;5072361;28;20080;-74
2022/06/17 13:09:36;;;;;;;3.47;1.63;;;28.90;69.40;;;;;;5072534;28;20032;-73
2022/06/17 13:12:11;;;;;;;3.45;1.92;;;29.10;69.00;;;;;;5072018;28;20040;-74
2022/06/17 13:15:01;;;;;;;5.57;1.65;;;29.20;68.80;;;;;;5070712;28;20394;-70
2022/06/17 13:17:37;;;;;;;4.13;1.92;;;28.90;67.60;;;;;;5071961;28;20547;-73
2022/06/17 13:20:09;;;;;;;3.35;1.90;;;28.60;66.90;;;;;;5067414;28;20033;-71
2022/06/17 13:22:47;;;;;;;6.93;2.28;;;28.60;67.40;;;;;;5070862;28;20037;-72
2022/06/17 13:25:34;;;;;;;1.98;1.65;;;28.80;67.60;;;;;;5070697;28;20028;-71
2022/06/17 13:28:19;;;;;;;2.92;1.83;;;28.90;66.60;;;;;;5071025;28;20028;-73
2022/06/17 13:30:53;;;;;;;4.72;2.08;;;28.70;66.20;;;;;;5081119;28;20032;-69
2022/06/17 13:33:38;;;;;;;3.22;1.85;;;28.70;66.50;;;;;;5071863;28;20440;-73
2022/06/17 13:36:07;;;;;;;2.50;1.50;;;28.60;65.20;;;;;;5072134;28;20028;-72